Pucha Pucha, Argentina
Current Conditions -  °F | °C
As of 11:00 PM on Wednesday 17 Dec 2014 (Local Time) from SCAT Reporting Station
NA  
Wind Chill: 59°   Ceiling: NA
Heat Index: 59°   Visibility: 6mi
Dew Point: 52°   Wind: 7mph
Humidity: 77%   Direction: 210°SSW
Pressure: 30.06"   Gusts: NA
Location:  28.34°S, 69.22°W
Report Text: SCAT 180200Z AUTO 21006KT 9999 // ///011 15/11 Q1018
Loading
Personal Weather Stations






























Interactive Weather Map New forecast layout! Learn more

10-Day Weather Forecast

Advertisements
Track Severe Weather on mobile